KDPA/DPA METAR and TAF weather

Enter ICAO airport designator
Station Type Date Time Source
KDPA METAR 2021/05/14 21:52 UTC NOAA

KDPA 142152Z 18011KT 10SM SCT095 21/01 A3022 RMK AO2 SLP233 T02060006


Station Type Date Time Source
KDPA Decoded METAR 2021/05/14 21:52 UTC NOAA

CHICAGO/WEST CH DUPAGE, IL, United States (KDPA) 41-54N 88-15W 230M
May 14, 2021 - 05:52 PM EDT / 2021.05.14 2152 UTC
Wind: from the S (180 degrees) at 13 MPH (11 KT):0
Visibility: 10 mile(s):0
Sky conditions: partly cloudy
Temperature: 69.1 F (20.6 C)
Dew Point: 33.1 F (0.6 C)
Relative Humidity: 26%
Pressure (altimeter): 30.22 in. Hg (1023 hPa)
ob: KDPA 142152Z 18011KT 10SM SCT095 21/01 A3022 RMK AO2 SLP233 T02060006
cycle: 22

Station Type Date Time Source
KDPA TAF 2021/05/14 21:59 UTC NOAA

TAF
AMD KDPA 142059Z 1421/1518 19010KT P6SM SCT100 BKN250
FM150100 18007KT P6SM FEW100 BKN200
FM151500 19010G15KT P6SM OVC080 PROB30 1516/1518 6SM -SHRA BKN025

Example: see airport list